Time;durP1;ratioP1;P1;durP2;ratioP2;P2;SDS_P1;SDS_P2;PMS_P1;PMS_P2;Temp;Humidity;BMP_temperature;BMP_pressure;BME280_temperature;BME280_humidity;BME280_pressure;Samples;Min_cycle;Max_cycle;Signal;HPM_P1;HPM_P2
2023/01/05 00:01:34;;;;;;;33.83;30.87;;;;;;;7.77;100.00;100371.44;5014524;28;20437;-49
2023/01/05 00:04:02;;;;;;;33.97;30.60;;;;;;;7.76;100.00;100364.50;5013652;28;20457;-46
2023/01/05 00:06:30;;;;;;;32.77;29.80;;;;;;;7.75;100.00;100370.81;5014613;28;20532;-48
2023/01/05 00:09:00;;;;;;;32.90;30.00;;;;;;;7.75;100.00;100376.94;5013982;28;20476;-44
2023/01/05 00:22:34;;;;;;;32.60;30.10;;;;;;;7.77;100.00;100385.53;5014148;28;20459;-46
2023/01/05 00:25:05;;;;;;;34.00;31.03;;;;;;;7.73;100.00;100391.41;5013070;28;20456;-45
2023/01/05 00:27:39;;;;;;;32.50;29.73;;;;;;;7.75;100.00;100394.69;5014067;28;20491;-44
2023/01/05 00:30:09;;;;;;;33.50;30.30;;;;;;;7.69;100.00;100398.91;5013756;28;20452;-45
2023/01/05 00:32:36;;;;;;;35.50;32.10;;;;;;;7.71;100.00;100380.13;5013488;28;20429;-45
2023/01/05 00:35:05;;;;;;;32.57;30.43;;;;;;;7.69;100.00;100390.13;5012834;28;20560;-48
2023/01/05 00:37:35;;;;;;;34.20;31.10;;;;;;;7.70;100.00;100382.00;5011277;28;20433;-47
2023/01/05 00:40:04;;;;;;;32.60;29.53;;;;;;;7.72;100.00;100376.47;5005802;28;20445;-49
2023/01/05 00:42:32;;;;;;;35.47;31.83;;;;;;;7.74;100.00;100396.53;5013898;28;20429;-45
2023/01/05 00:45:00;;;;;;;35.17;30.70;;;;;;;7.74;100.00;100401.00;5012966;28;20540;-44
2023/01/05 00:47:27;;;;;;;35.17;32.07;;;;;;;7.76;100.00;100391.03;5013504;28;20460;-43
2023/01/05 00:49:55;;;;;;;33.20;30.70;;;;;;;7.76;100.00;100405.09;5013706;28;20854;-48
2023/01/05 00:52:23;;;;;;;35.17;32.07;;;;;;;7.76;100.00;100397.16;5013669;28;20452;-49
2023/01/05 00:54:50;;;;;;;32.30;30.00;;;;;;;7.77;100.00;100400.63;5012734;28;20842;-44
2023/01/05 00:57:19;;;;;;;36.33;32.90;;;;;;;7.78;100.00;100403.09;5013680;28;20436;-44
2023/01/05 00:59:47;;;;;;;33.70;30.90;;;;;;;7.77;100.00;100412.06;5013578;28;20456;-47
2023/01/05 01:02:15;;;;;;;34.23;31.17;;;;;;;7.78;100.00;100408.41;5013182;28;20448;-43
2023/01/05 01:04:43;;;;;;;33.63;30.93;;;;;;;7.79;100.00;100417.22;5012690;28;20540;-43
2023/01/05 01:07:10;;;;;;;35.63;32.53;;;;;;;7.78;100.00;100413.72;5013445;28;20439;-44
2023/01/05 01:09:39;;;;;;;34.60;31.00;;;;;;;7.79;100.00;100409.25;5013261;28;20460;-44
2023/01/05 01:12:07;;;;;;;34.37;31.37;;;;;;;7.79;100.00;100403.94;5013239;28;20425;-47
2023/01/05 01:14:36;;;;;;;35.47;32.43;;;;;;;7.79;100.00;100406.59;5012424;28;20480;-47
2023/01/05 01:17:04;;;;;;;34.63;31.77;;;;;;;7.78;100.00;100410.25;5012788;28;20527;-47
2023/01/05 01:19:33;;;;;;;33.00;30.53;;;;;;;7.76;100.00;100413.06;5012655;28;20971;-47
2023/01/05 01:22:01;;;;;;;38.57;31.50;;;;;;;7.76;100.00;100415.72;5012896;28;20437;-44
2023/01/05 01:24:29;;;;;;;38.50;31.20;;;;;;;7.70;100.00;100424.47;5012365;28;20836;-45
2023/01/05 01:26:56;;;;;;;32.27;29.83;;;;;;;7.70;100.00;100426.28;5013045;28;20440;-44
2023/01/05 01:29:24;;;;;;;33.20;30.33;;;;;;;7.74;100.00;100422.22;5012095;28;20457;-48
2023/01/05 01:31:54;;;;;;;32.40;30.03;;;;;;;7.73;100.00;100437.38;5012712;28;20834;-44
2023/01/05 01:34:22;;;;;;;32.67;30.07;;;;;;;7.75;100.00;100429.19;5012078;28;20851;-44
2023/01/05 01:36:49;;;;;;;34.00;30.60;;;;;;;7.74;100.00;100422.22;5010107;28;20535;-46
2023/01/05 01:39:17;;;;;;;32.97;30.10;;;;;;;7.72;100.00;100434.88;5004498;28;20456;-43
2023/01/05 01:41:45;;;;;;;33.57;30.53;;;;;;;7.72;100.00;100430.41;5012559;28;20433;-44
2023/01/05 01:44:50;;;;;;;32.63;29.73;;;;;;;7.71;100.00;100435.88;5011861;28;20831;-43
2023/01/05 01:47:24;;;;;;;33.53;30.03;;;;;;;7.69;100.00;100435.25;5012641;28;20810;-43
2023/01/05 01:49:54;;;;;;;32.90;30.03;;;;;;;7.71;100.00;100436.69;5012634;28;20978;-44
2023/01/05 01:52:23;;;;;;;32.17;30.03;;;;;;;7.73;100.00;100421.44;5012303;28;20949;-43
2023/01/05 01:54:52;;;;;;;33.40;30.43;;;;;;;7.76;100.00;100425.53;5011766;28;21031;-45
2023/01/05 01:57:21;;;;;;;33.27;30.47;;;;;;;7.77;100.00;100451.88;5012637;28;20797;-44
2023/01/05 01:59:50;;;;;;;35.27;31.73;;;;;;;7.80;100.00;100440.91;5013178;28;20461;-46
2023/01/05 02:02:18;;;;;;;33.03;29.83;;;;;;;7.82;100.00;100437.25;5013067;28;20487;-43
2023/01/05 02:04:48;;;;;;;33.07;30.70;;;;;;;7.82;100.00;100431.94;5012026;28;20457;-43
2023/01/05 02:07:16;;;;;;;35.83;32.13;;;;;;;7.79;100.00;100444.56;5013459;28;20433;-44
2023/01/05 02:09:44;;;;;;;33.63;30.73;;;;;;;7.76;100.00;100442.28;5012452;28;20453;-45
2023/01/05 02:12:28;;;;;;;33.67;30.67;;;;;;;7.77;100.00;100445.75;5012822;28;20497;-45
2023/01/05 02:15:09;;;;;;;34.67;31.17;;;;;;;7.74;100.00;100436.31;4996725;28;20520;-44
2023/01/05 02:17:50;;;;;;;33.47;30.50;;;;;;;7.72;100.00;100446.31;4995635;28;20454;-46
2023/01/05 02:20:36;;;;;;;32.67;29.60;;;;;;;7.71;100.00;100447.31;4990218;28;20959;-44
2023/01/05 02:23:44;;;;;;;33.33;30.43;;;;;;;7.71;100.00;100438.53;4991244;28;20426;-44
2023/01/05 02:26:54;;;;;;;34.13;31.27;;;;;;;7.73;100.00;100453.28;4992871;28;20434;-44
2023/01/05 02:29:49;;;;;;;33.90;30.90;;;;;;;7.68;100.00;100460.13;4992540;28;20453;-45
2023/01/05 02:32:27;;;;;;;33.20;30.50;;;;;;;7.67;100.00;100463.81;4993026;28;20434;-44
2023/01/05 02:35:10;;;;;;;33.03;30.10;;;;;;;7.66;100.00;100459.50;5008312;28;20471;-44
2023/01/05 02:37:44;;;;;;;34.07;30.93;;;;;;;7.62;100.00;100452.91;5007441;28;20487;-44
2023/01/05 02:40:18;;;;;;;32.73;29.80;;;;;;;7.58;100.00;100455.13;4996769;28;20488;-44
2023/01/05 02:42:49;;;;;;;32.50;29.90;;;;;;;7.53;100.00;100462.78;5016509;28;20436;-44
2023/01/05 02:45:17;;;;;;;32.43;30.00;;;;;;;7.46;100.00;100471.69;5016427;28;20441;-44
2023/01/05 02:47:46;;;;;;;32.10;29.60;;;;;;;7.42;100.00;100468.56;5016735;28;20472;-44
2023/01/05 02:50:18;;;;;;;33.60;30.20;;;;;;;7.45;100.00;100473.50;5016597;28;20464;-46
2023/01/05 02:52:56;;;;;;;33.33;30.67;;;;;;;7.44;100.00;100469.19;5016280;28;20425;-44
2023/01/05 02:55:30;;;;;;;34.57;30.47;;;;;;;7.47;100.00;100470.66;5016317;28;20877;-44
2023/01/05 02:58:05;;;;;;;35.43;32.00;;;;;;;7.50;100.00;100467.63;5016379;28;20498;-45
2023/01/05 03:00:38;;;;;;;35.87;30.70;;;;;;;7.52;100.00;100463.00;5016849;28;20425;-45
2023/01/05 03:03:11;;;;;;;31.00;29.00;;;;;;;7.54;100.00;100474.25;5016121;28;20433;-44
2023/01/05 03:05:44;;;;;;;32.67;29.97;;;;;;;7.55;100.00;100481.19;5016888;28;20425;-45
2023/01/05 03:08:20;;;;;;;32.70;29.77;;;;;;;7.59;100.00;100479.81;5016369;28;20436;-46
2023/01/05 03:13:49;;;;;;;33.47;30.37;;;;;;;7.61;100.00;100475.16;5015856;28;20477;-44
2023/01/05 03:16:22;;;;;;;33.40;30.20;;;;;;;7.62;100.00;100474.13;5016537;28;20469;-46
2023/01/05 03:35:41;;;;;;;33.37;30.00;;;;;;;7.71;100.00;100471.22;5015982;28;20464;-45
2023/01/05 03:38:16;;;;;;;32.67;30.10;;;;;;;7.74;100.00;100477.97;5010494;28;20886;-46
2023/01/05 03:40:46;;;;;;;33.77;30.67;;;;;;;7.75;100.00;100469.84;5011691;28;20428;-47
2023/01/05 03:43:14;;;;;;;34.70;31.77;;;;;;;7.76;100.00;100478.63;5015985;28;20456;-47
2023/01/05 03:45:45;;;;;;;34.57;30.47;;;;;;;7.74;100.00;100475.31;5015820;28;20436;-47
2023/01/05 03:48:12;;;;;;;34.33;30.90;;;;;;;7.75;100.00;100493.72;5015557;28;20464;-48
2023/01/05 03:50:41;;;;;;;32.73;30.30;;;;;;;7.73;100.00;100490.44;5015608;28;20437;-45
2023/01/05 03:53:09;;;;;;;33.07;30.57;;;;;;;7.75;100.00;100492.91;5013552;28;20456;-46
2023/01/05 03:55:37;;;;;;;34.50;31.20;;;;;;;7.74;100.00;100509.81;5015433;28;20476;-45
2023/01/05 03:58:05;;;;;;;32.90;30.70;;;;;;;7.75;100.00;100501.69;5015533;28;20437;-45
2023/01/05 04:00:33;;;;;;;36.03;32.53;;;;;;;7.75;100.00;100514.13;5015042;28;20437;-46
2023/01/05 04:03:00;;;;;;;35.00;32.00;;;;;;;7.75;100.00;100522.09;5015021;28;20959;-46
2023/01/05 04:05:28;;;;;;;34.13;31.13;;;;;;;7.77;100.00;100512.09;5014852;28;20434;-44
2023/01/05 04:07:57;;;;;;;35.83;32.63;;;;;;;7.74;100.00;100513.31;5015111;28;20515;-50
2023/01/05 04:10:25;;;;;;;32.20;30.27;;;;;;;7.74;100.00;100508.00;5015358;28;20437;-45
2023/01/05 04:12:52;;;;;;;32.70;30.20;;;;;;;7.75;100.00;100508.81;5015034;28;20923;-46
2023/01/05 04:15:20;;;;;;;33.70;30.40;;;;;;;7.75;100.00;100514.97;5014985;28;21170;-45
2023/01/05 04:17:47;;;;;;;33.60;30.30;;;;;;;7.76;100.00;100526.41;5015367;28;20433;-45
2023/01/05 04:20:15;;;;;;;33.30;30.40;;;;;;;7.79;100.00;100523.38;5015252;28;20544;-45
2023/01/05 04:22:43;;;;;;;39.50;32.73;;;;;;;7.79;100.00;100521.53;5015043;28;20433;-47
2023/01/05 04:25:12;;;;;;;37.13;33.20;;;;;;;7.77;100.00;100544.78;5014796;28;20457;-45
2023/01/05 04:27:40;;;;;;;35.10;31.67;;;;;;;7.78;100.00;100535.00;5015495;28;20439;-45
2023/01/05 04:30:09;;;;;;;35.80;32.77;;;;;;;7.75;100.00;100543.34;5015190;28;20457;-45
2023/01/05 04:32:37;;;;;;;34.83;32.03;;;;;;;7.75;100.00;100530.88;5015085;28;20428;-45
2023/01/05 04:35:05;;;;;;;35.97;33.00;;;;;;;7.77;100.00;100536.00;5014380;28;20489;-45
2023/01/05 04:37:38;;;;;;;37.67;33.57;;;;;;;7.76;100.00;100545.00;5011906;28;20468;-47
2023/01/05 04:40:06;;;;;;;35.87;32.47;;;;;;;7.76;100.00;100545.00;5006552;28;20453;-45
2023/01/05 04:42:35;;;;;;;34.53;31.23;;;;;;;7.75;100.00;100530.88;5014469;28;20500;-45
2023/01/05 04:45:04;;;;;;;34.13;31.17;;;;;;;7.74;100.00;100546.97;5014009;28;20475;-48
2023/01/05 04:47:31;;;;;;;35.33;32.17;;;;;;;7.75;100.00;100553.94;5014391;28;20436;-45
2023/01/05 04:49:59;;;;;;;34.67;31.80;;;;;;;7.77;100.00;100546.63;5014500;28;20521;-45
2023/01/05 04:52:27;;;;;;;35.80;32.50;;;;;;;7.77;100.00;100533.34;5014519;28;20887;-45
2023/01/05 04:54:55;;;;;;;36.37;32.13;;;;;;;7.78;100.00;100530.53;5013805;28;20488;-50
2023/01/05 04:57:22;;;;;;;35.17;31.60;;;;;;;7.76;100.00;100558.25;5014615;28;20429;-45
2023/01/05 04:59:51;;;;;;;35.40;30.40;;;;;;;7.75;100.00;100549.47;5014304;28;20457;-46
2023/01/05 05:02:19;;;;;;;44.23;32.63;;;;;;;7.73;100.00;100543.53;5014464;28;20433;-44
2023/01/05 05:04:47;;;;;;;34.83;31.30;;;;;;;7.72;100.00;100557.81;5014395;28;20465;-45
2023/01/05 05:07:15;;;;;;;34.47;31.37;;;;;;;7.70;100.00;100561.66;5014585;28;20803;-45
2023/01/05 05:09:43;;;;;;;34.80;31.30;;;;;;;7.71;100.00;100561.44;5014470;28;20449;-45
2023/01/05 05:12:10;;;;;;;35.93;32.77;;;;;;;7.70;100.00;100559.81;5014091;28;20437;-44
2023/01/05 05:14:38;;;;;;;41.47;32.33;;;;;;;7.68;100.00;100559.16;5013383;28;20472;-47
2023/01/05 05:17:07;;;;;;;35.13;31.63;;;;;;;7.71;100.00;100568.59;5014341;28;20473;-46
2023/01/05 05:19:34;;;;;;;38.20;34.50;;;;;;;7.71;100.00;100531.41;5014356;28;20453;-45
2023/01/05 05:22:02;;;;;;;37.50;33.33;;;;;;;7.74;100.00;100573.53;5014603;28;20801;-45
2023/01/05 05:24:30;;;;;;;34.63;31.00;;;;;;;7.75;100.00;100578.66;5013511;28;20461;-48
2023/01/05 05:26:58;;;;;;;35.40;32.00;;;;;;;7.77;100.00;100571.34;5014060;28;20791;-46
2023/01/05 05:29:25;;;;;;;36.23;32.50;;;;;;;7.73;100.00;100585.16;5013896;28;20467;-45
2023/01/05 05:31:53;;;;;;;37.07;33.40;;;;;;;7.74;100.00;100602.72;5014324;28;20440;-45
2023/01/05 05:34:22;;;;;;;34.87;32.27;;;;;;;7.73;100.00;100601.94;5013162;28;20472;-45
2023/01/05 05:36:50;;;;;;;36.10;33.10;;;;;;;7.75;100.00;100602.56;5010967;28;21031;-47
2023/01/05 05:39:18;;;;;;;35.50;32.57;;;;;;;7.74;100.00;100605.38;5006079;28;20997;-45
2023/01/05 05:41:46;;;;;;;36.30;32.53;;;;;;;7.73;100.00;100603.75;5013680;28;20453;-45
2023/01/05 05:44:13;;;;;;;35.23;31.87;;;;;;;7.76;100.00;100614.00;5013982;28;21084;-46
2023/01/05 05:46:41;;;;;;;36.07;32.63;;;;;;;7.75;100.00;100612.34;5013940;28;20432;-47
2023/01/05 05:49:09;;;;;;;34.53;31.60;;;;;;;7.76;100.00;100621.97;5013767;28;20483;-45
2023/01/05 05:51:38;;;;;;;35.10;31.80;;;;;;;7.74;100.00;100614.16;5013979;28;20433;-45
2023/01/05 05:54:05;;;;;;;35.13;31.87;;;;;;;7.74;100.00;100627.44;5012942;28;20523;-46
2023/01/05 05:56:33;;;;;;;36.10;32.40;;;;;;;7.75;100.00;100634.41;5013955;28;20500;-47
2023/01/05 05:59:01;;;;;;;34.77;31.93;;;;;;;7.72;100.00;100641.91;5014258;28;20972;-46
2023/01/05 06:01:29;;;;;;;36.33;33.03;;;;;;;7.71;100.00;100643.72;5013681;28;21004;-45
2023/01/05 06:03:56;;;;;;;34.80;31.67;;;;;;;7.68;100.00;100637.94;5012901;28;20461;-49
2023/01/05 06:06:24;;;;;;;33.70;30.70;;;;;;;7.67;100.00;100641.63;5013878;28;20516;-44
2023/01/05 06:08:53;;;;;;;36.00;32.70;;;;;;;7.60;100.00;100644.19;5013539;28;20769;-47
2023/01/05 06:11:21;;;;;;;33.00;30.80;;;;;;;7.48;100.00;100629.69;5013314;28;20429;-46
2023/01/05 06:13:49;;;;;;;33.33;31.33;;;;;;;7.41;100.00;100687.09;5013583;28;20460;-45
2023/01/05 06:16:16;;;;;;;33.70;30.83;;;;;;;7.33;100.00;100687.19;5012743;28;20474;-47
2023/01/05 06:18:44;;;;;;;32.03;29.90;;;;;;;7.27;100.00;100713.56;5013463;28;20520;-48
2023/01/05 06:21:12;;;;;;;32.17;30.03;;;;;;;7.19;100.00;100717.94;5013494;28;20425;-46
2023/01/05 06:23:40;;;;;;;32.37;30.03;;;;;;;6.98;100.00;100708.94;5013173;28;20460;-48
2023/01/05 06:26:09;;;;;;;31.83;29.60;;;;;;;6.86;100.00;100737.69;5013245;28;20429;-45
2023/01/05 06:28:36;;;;;;;31.23;29.13;;;;;;;6.68;100.00;100724.66;5013234;28;20457;-45
2023/01/05 06:31:04;;;;;;;33.53;30.97;;;;;;;6.57;100.00;100759.47;5013622;28;20986;-49
2023/01/05 06:33:32;;;;;;;31.00;29.00;;;;;;;6.45;100.00;100755.53;5013274;28;20468;-47
2023/01/05 06:35:59;;;;;;;30.37;28.60;;;;;;;6.36;100.00;100764.47;5013302;28;20444;-45
2023/01/05 06:38:28;;;;;;;31.13;28.70;;;;;;;6.22;100.00;100757.22;5004421;28;21066;-45
2023/01/05 06:40:56;;;;;;;30.30;28.60;;;;;;;6.06;100.00;100786.38;5010994;28;20938;-45
2023/01/05 06:43:25;;;;;;;31.47;29.43;;;;;;;5.94;100.00;100795.66;5013397;28;20487;-48
2023/01/05 06:45:53;;;;;;;30.33;28.63;;;;;;;5.80;100.00;100806.84;5012616;28;20946;-46
2023/01/05 06:48:21;;;;;;;31.17;29.70;;;;;;;5.55;100.00;100803.34;5012952;28;20465;-45
2023/01/05 06:50:48;;;;;;;29.33;28.03;;;;;;;5.47;100.00;100832.41;5014067;28;20523;-47
2023/01/05 06:53:16;;;;;;;29.57;28.37;;;;;;;5.29;100.00;100829.88;5012385;28;20491;-46
2023/01/05 06:55:44;;;;;;;29.63;28.27;;;;;;;5.17;100.00;100851.50;5013438;28;20435;-45
2023/01/05 06:58:12;;;;;;;29.60;28.40;;;;;;;5.13;100.00;100853.63;5003836;28;20473;-45
2023/01/05 07:00:41;;;;;;;29.30;27.90;;;;;;;5.09;100.00;100875.22;5005864;28;20441;-45
2023/01/05 07:03:12;;;;;;;29.40;27.80;;;;;;;5.05;100.00;100858.06;4993330;28;20466;-45
2023/01/05 07:05:40;;;;;;;29.37;28.13;;;;;;;5.02;100.00;100875.88;4993591;28;20446;-47
2023/01/05 07:08:08;;;;;;;29.30;28.10;;;;;;;4.97;100.00;100875.50;4992643;28;20430;-44
2023/01/05 07:10:35;;;;;;;28.13;26.83;;;;;;;4.87;100.00;100895.09;4993098;28;20433;-45
2023/01/05 07:13:03;;;;;;;28.23;27.07;;;;;;;4.83;100.00;100902.53;4992952;28;20452;-45
2023/01/05 07:15:31;;;;;;;28.53;27.23;;;;;;;4.76;100.00;100904.13;4992904;28;20434;-49
2023/01/05 07:18:00;;;;;;;28.10;26.90;;;;;;;4.69;100.00;100913.63;4993475;28;20478;-45
2023/01/05 07:20:28;;;;;;;28.57;27.30;;;;;;;4.61;100.00;100916.22;4993213;28;20433;-48
2023/01/05 07:22:55;;;;;;;28.90;27.80;;;;;;;4.55;100.00;100955.63;4992672;28;20461;-45
2023/01/05 07:25:23;;;;;;;28.27;27.27;;;;;;;4.51;100.00;100920.75;4992932;28;20484;-45
2023/01/05 07:27:51;;;;;;;29.70;28.40;;;;;;;4.46;100.00;100947.63;4995162;28;20430;-44
2023/01/05 07:30:19;;;;;;;30.70;29.27;;;;;;;4.40;100.00;100955.34;4997381;28;20426;-47
2023/01/05 07:32:47;;;;;;;31.20;29.57;;;;;;;4.35;100.00;100954.97;4996795;28;20452;-46
2023/01/05 07:35:16;;;;;;;30.27;28.97;;;;;;;4.26;100.00;100942.69;4996173;28;20457;-49
2023/01/05 07:37:44;;;;;;;30.07;28.83;;;;;;;4.27;100.00;100987.38;5000994;28;20547;-49
2023/01/05 07:40:12;;;;;;;28.20;27.07;;;;;;;4.26;100.00;100972.53;5008043;28;20448;-45
2023/01/05 07:42:40;;;;;;;28.13;26.93;;;;;;;4.24;100.00;100994.81;5016388;28;20428;-44
2023/01/05 07:45:09;;;;;;;28.37;27.20;;;;;;;4.17;100.00;101018.31;5015291;28;20877;-45
2023/01/05 07:47:38;;;;;;;28.17;27.07;;;;;;;4.15;100.00;101019.44;5015906;28;20939;-45
2023/01/05 07:50:07;;;;;;;29.53;28.00;;;;;;;4.13;100.00;101039.84;5016080;28;20488;-47
2023/01/05 07:52:37;;;;;;;29.43;27.60;;;;;;;4.11;100.00;101040.03;5015624;28;20439;-45
2023/01/05 07:55:06;;;;;;;27.50;26.40;;;;;;;4.11;100.00;101050.56;5015316;28;20461;-44
2023/01/05 07:57:33;;;;;;;28.17;26.80;;;;;;;4.09;100.00;101039.31;5016126;28;20473;-47
2023/01/05 08:00:01;;;;;;;27.60;26.30;;;;;;;4.06;100.00;101057.28;5016837;28;20461;-45
2023/01/05 08:02:29;;;;;;;27.23;26.13;;;;;;;4.07;100.00;101056.28;5024484;28;20429;-45
2023/01/05 08:05:02;;;;;;;26.57;25.47;;;;;;;4.07;100.00;101061.56;5026216;28;20499;-48
2023/01/05 08:07:30;;;;;;;27.43;26.10;;;;;;;4.10;100.00;101063.91;5025779;28;20433;-50
2023/01/05 08:15:30;;;;;;;31.30;28.67;;;;;;;4.07;100.00;101101.16;5025742;28;20433;-51
2023/01/05 08:17:58;;;;;;;29.80;28.40;;;;;;;4.05;100.00;101103.94;5016522;28;20560;-50
2023/01/05 08:20:26;;;;;;;28.40;27.00;;;;;;;4.06;100.00;101104.78;5011240;28;20438;-47
2023/01/05 08:22:53;;;;;;;29.77;27.77;;;;;;;4.05;100.00;101117.13;5015010;28;20772;-48
2023/01/05 08:25:23;;;;;;;28.47;27.07;;;;;;;4.02;100.00;101120.06;5025797;28;20429;-48
2023/01/05 08:27:50;;;;;;;29.23;27.93;;;;;;;4.02;100.00;101120.06;5025585;28;20426;-46
2023/01/05 08:30:18;;;;;;;29.73;28.33;;;;;;;4.02;100.00;101138.53;5019197;28;20454;-47
2023/01/05 08:32:46;;;;;;;28.70;27.17;;;;;;;4.06;100.00;101137.25;5016768;28;20429;-50
2023/01/05 08:35:14;;;;;;;27.70;26.23;;;;;;;4.01;100.00;101138.66;5011825;28;20517;-51
2023/01/05 08:37:44;;;;;;;29.33;27.80;;;;;;;4.03;100.00;101134.09;5017691;28;20905;-51
2023/01/05 08:40:12;;;;;;;28.60;27.00;;;;;;;4.10;100.00;101148.34;5006894;28;20999;-45
2023/01/05 08:42:41;;;;;;;29.77;27.33;;;;;;;4.13;100.00;101156.00;5010306;28;20434;-44
2023/01/05 08:45:09;;;;;;;28.87;27.50;;;;;;;4.15;100.00;101168.06;5006984;28;20461;-48
2023/01/05 08:47:37;;;;;;;29.17;27.30;;;;;;;4.23;100.00;101181.38;5017124;28;20436;-47
2023/01/05 08:50:06;;;;;;;29.33;27.63;;;;;;;4.26;100.00;101174.97;5004462;28;20462;-47
2023/01/05 08:52:33;;;;;;;29.47;27.30;;;;;;;4.29;100.00;101185.25;5014072;28;20427;-45
2023/01/05 08:55:01;;;;;;;29.80;27.63;;;;;;;4.34;100.00;101188.28;5011648;28;20456;-46
2023/01/05 08:57:30;;;;;;;29.03;26.93;;;;;;;4.36;100.00;101199.53;5014486;28;20493;-44
2023/01/05 08:59:59;;;;;;;29.13;27.50;;;;;;;4.43;100.00;101208.53;5015407;28;20465;-48
2023/01/05 09:02:27;;;;;;;29.50;27.87;;;;;;;4.48;100.00;101215.03;5006128;28;20457;-47
2023/01/05 09:04:54;;;;;;;31.73;29.33;;;;;;;4.45;100.00;101217.13;5011785;28;20458;-45
2023/01/05 09:07:23;;;;;;;29.20;27.17;;;;;;;4.53;100.00;101219.91;4992909;28;20445;-47
2023/01/05 09:09:50;;;;;;;29.17;27.00;;;;;;;4.54;100.00;101231.28;5005673;28;20461;-45
2023/01/05 09:12:18;;;;;;;28.03;26.30;;;;;;;4.54;100.00;101231.28;5007642;28;20442;-47
2023/01/05 09:14:46;;;;;;;28.23;26.50;;;;;;;4.52;100.00;101228.78;5024495;28;20453;-48
2023/01/05 09:17:15;;;;;;;29.10;27.23;;;;;;;4.44;100.00;101239.25;5012509;28;20441;-49
2023/01/05 09:19:42;;;;;;;28.57;26.73;;;;;;;4.48;100.00;101253.81;5012222;28;20453;-48
2023/01/05 09:22:10;;;;;;;28.63;26.70;;;;;;;4.54;100.00;101263.78;5024941;28;20456;-52
2023/01/05 09:24:38;;;;;;;28.73;26.97;;;;;;;4.51;100.00;101263.28;5006180;28;20461;-46
2023/01/05 09:27:06;;;;;;;28.90;27.13;;;;;;;4.53;100.00;101269.25;5023888;28;20429;-46
2023/01/05 09:29:34;;;;;;;28.20;26.77;;;;;;;4.56;100.00;101276.88;5017721;28;20450;-46
2023/01/05 09:32:02;;;;;;;29.13;27.20;;;;;;;4.64;100.00;101282.25;5005100;28;20434;-47
2023/01/05 09:34:31;;;;;;;28.87;27.07;;;;;;;4.68;100.00;101289.75;5004296;28;20457;-46
2023/01/05 09:36:59;;;;;;;28.23;26.83;;;;;;;4.70;100.00;101293.09;5022520;28;20902;-48
2023/01/05 09:39:27;;;;;;;30.70;28.50;;;;;;;4.76;100.00;101304.88;5023188;28;20484;-48
2023/01/05 09:41:58;;;;;;;45.97;28.90;;;;;;;4.80;100.00;101307.09;5023301;28;20962;-46
2023/01/05 09:44:31;;;;;;;29.47;27.60;;;;;;;4.86;100.00;101322.38;5022264;28;20465;-46
2023/01/05 09:47:03;;;;;;;28.93;26.77;;;;;;;4.88;100.00;101320.41;5011916;28;20864;-47
2023/01/05 09:49:34;;;;;;;27.50;26.10;;;;;;;5.02;100.00;101329.66;5021792;28;20477;-47
2023/01/05 09:52:08;;;;;;;28.10;26.40;;;;;;;5.07;100.00;101330.06;5009147;28;20433;-46
2023/01/05 09:54:37;;;;;;;28.33;26.50;;;;;;;5.11;100.00;101336.69;5019501;28;20454;-50
2023/01/05 09:57:12;;;;;;;28.80;26.87;;;;;;;5.09;100.00;101337.84;5018148;28;20425;-52
2023/01/05 09:59:44;;;;;;;28.30;26.50;;;;;;;5.04;100.00;101335.63;4988521;28;20477;-49
2023/01/05 10:02:19;;;;;;;29.17;27.40;;;;;;;5.07;100.00;101331.88;5003968;28;20418;-45
2023/01/05 10:04:50;;;;;;;27.90;26.50;;;;;;;5.10;100.00;101337.69;5008312;28;20460;-50
2023/01/05 10:07:26;;;;;;;30.20;28.00;;;;;;;5.09;100.00;101340.47;5022811;28;20986;-52
2023/01/05 10:09:57;;;;;;;28.93;27.03;;;;;;;5.20;100.00;101350.84;5023407;28;20539;-49
2023/01/05 10:15:18;;;;;;;29.30;27.70;;;;;;;5.18;100.00;101348.38;5010729;28;20441;-51
2023/01/05 10:17:47;;;;;;;27.93;26.50;;;;;;;5.14;100.00;101362.03;5015185;28;20426;-48
2023/01/05 10:20:19;;;;;;;27.00;25.70;;;;;;;5.15;100.00;101367.16;5007139;28;20445;-46
2023/01/05 10:22:55;;;;;;;28.50;26.73;;;;;;;5.23;100.00;101369.06;5013855;28;20518;-47
2023/01/05 10:25:33;;;;;;;29.30;27.40;;;;;;;5.22;100.00;101367.41;5003690;28;20915;-46
2023/01/05 10:28:27;;;;;;;28.10;26.80;;;;;;;5.26;100.00;101379.34;5010852;28;20432;-49
2023/01/05 10:30:58;;;;;;;28.57;26.77;;;;;;;5.33;100.00;101377.78;5006999;28;20871;-47
2023/01/05 10:33:43;;;;;;;28.87;26.90;;;;;;;5.34;100.00;101369.72;5023388;28;20470;-49
2023/01/05 10:36:41;;;;;;;27.60;26.20;;;;;;;5.24;100.00;101387.44;5022888;28;20431;-50
2023/01/05 10:39:49;;;;;;;29.10;26.97;;;;;;;5.27;100.00;101375.72;5020121;28;20465;-51
2023/01/05 10:42:40;;;;;;;27.80;26.50;;;;;;;5.32;100.00;101386.69;5000150;28;20441;-46
2023/01/05 10:45:11;;;;;;;27.40;25.90;;;;;;;5.44;100.00;101381.06;5010618;28;20458;-45
2023/01/05 10:47:40;;;;;;;27.13;25.93;;;;;;;5.46;100.00;101402.09;5002735;28;20497;-46
2023/01/05 10:50:36;;;;;;;27.47;26.07;;;;;;;5.49;100.00;101413.22;5013582;28;20468;-45
2023/01/05 10:53:10;;;;;;;28.50;26.43;;;;;;;5.50;100.00;101414.03;5002024;28;20486;-46
2023/01/05 10:55:58;;;;;;;28.20;26.60;;;;;;;5.52;100.00;101412.09;5013177;28;20551;-46
2023/01/05 10:58:27;;;;;;;28.03;26.50;;;;;;;5.47;100.00;101427.53;4998686;28;20488;-49
2023/01/05 11:00:57;;;;;;;26.53;25.30;;;;;;;5.47;100.00;101419.59;5010377;28;20434;-49
2023/01/05 11:03:32;;;;;;;26.80;25.70;;;;;;;5.57;100.00;101423.06;5018559;28;20464;-48
2023/01/05 11:06:22;;;;;;;25.57;24.47;;;;;;;5.66;100.00;101437.19;5018155;28;20434;-48
2023/01/05 11:08:52;;;;;;;27.20;25.77;;;;;;;5.70;100.00;101433.28;5021808;28;20460;-48
2023/01/05 11:11:22;;;;;;;27.07;25.77;;;;;;;5.63;100.00;101442.78;5006569;28;20429;-47
2023/01/05 11:13:55;;;;;;;28.50;26.90;;;;;;;5.70;100.00;101449.16;5006338;28;20466;-50
2023/01/05 11:16:25;;;;;;;28.33;26.53;;;;;;;5.57;100.00;101460.09;5022299;28;20911;-47
2023/01/05 11:18:54;;;;;;;27.20;26.17;;;;;;;5.61;100.00;101456.19;5027068;28;20473;-49
2023/01/05 11:21:23;;;;;;;27.90;26.20;;;;;;;5.64;100.00;101455.06;5026759;28;20903;-46
2023/01/05 11:23:55;;;;;;;28.80;26.70;;;;;;;5.61;100.00;101464.13;5026167;28;20465;-47
2023/01/05 11:26:31;;;;;;;27.17;25.80;;;;;;;5.62;100.00;101457.00;5026056;28;20427;-47
2023/01/05 11:29:10;;;;;;;28.50;27.03;;;;;;;5.71;100.00;101470.19;5025514;28;20444;-45
2023/01/05 11:31:41;;;;;;;27.60;26.20;;;;;;;5.66;100.00;101476.91;5026324;28;20428;-46
2023/01/05 11:34:20;;;;;;;27.70;26.33;;;;;;;5.67;100.00;101470.63;5025836;28;20566;-48
2023/01/05 11:36:52;;;;;;;28.27;26.97;;;;;;;5.65;100.00;101480.50;5023398;28;20804;-51
2023/01/05 11:39:27;;;;;;;26.63;25.30;;;;;;;5.62;100.00;101478.16;4986589;28;20488;-45
2023/01/05 11:42:08;;;;;;;29.10;27.40;;;;;;;5.64;100.00;101479.69;4986268;28;20444;-48
2023/01/05 11:44:37;;;;;;;27.43;25.90;;;;;;;5.55;100.00;101484.03;4986052;28;20463;-48
2023/01/05 11:47:07;;;;;;;28.30;26.57;;;;;;;5.61;100.00;101484.44;4986684;28;20449;-46
2023/01/05 11:49:35;;;;;;;27.47;25.90;;;;;;;5.60;100.00;101499.47;4985996;28;21033;-49
2023/01/05 11:52:03;;;;;;;26.93;25.60;;;;;;;5.63;100.00;101491.25;4985593;28;20494;-45
2023/01/05 11:54:38;;;;;;;27.80;26.30;;;;;;;5.52;100.00;101508.16;4984803;28;20470;-45
2023/01/05 11:57:17;;;;;;;26.93;25.83;;;;;;;5.52;100.00;101505.53;4986386;28;20529;-45
2023/01/05 11:59:46;;;;;;;26.67;25.47;;;;;;;5.56;100.00;101513.97;4985989;28;20482;-46
2023/01/05 12:02:47;;;;;;;27.43;26.20;;;;;;;5.59;100.00;101511.88;4984990;28;20470;-47
2023/01/05 12:05:25;;;;;;;28.10;26.20;;;;;;;5.68;100.00;101519.91;4985186;28;20431;-46